createdAt,value
2023-02-26T00:02:03.867Z,3.19
2023-02-26T00:04:30.149Z,3.10
2023-02-26T00:06:58.365Z,3.10
2023-02-26T00:09:26.112Z,3.20
2023-02-26T00:11:52.979Z,2.96
2023-02-26T00:14:19.407Z,3.10
2023-02-26T00:16:45.882Z,3.03
2023-02-26T00:19:12.516Z,3.02
2023-02-26T00:21:39.018Z,2.98
2023-02-26T00:24:05.291Z,3.12
2023-02-26T00:26:31.906Z,3.02
2023-02-26T00:28:58.425Z,3.07
2023-02-26T00:31:24.983Z,2.89
2023-02-26T00:33:51.419Z,2.92
2023-02-26T00:36:17.675Z,2.83
2023-02-26T00:38:43.951Z,2.82
2023-02-26T00:41:10.258Z,2.86
2023-02-26T00:43:36.562Z,2.99
2023-02-26T00:46:02.914Z,3.07
2023-02-26T00:48:29.223Z,2.83
2023-02-26T00:50:55.483Z,3.05
2023-02-26T00:53:21.826Z,3.24
2023-02-26T00:55:48.134Z,3.40
2023-02-26T00:58:14.418Z,3.60
2023-02-26T01:00:40.687Z,4.11
2023-02-26T01:03:06.979Z,3.70
2023-02-26T01:05:33.231Z,3.83
2023-02-26T01:07:59.495Z,4.20
2023-02-26T01:10:25.751Z,4.09
2023-02-26T01:12:52.121Z,4.04
2023-02-26T01:15:18.389Z,3.92
2023-02-26T01:17:44.730Z,3.79
2023-02-26T01:20:10.997Z,3.65
2023-02-26T01:22:37.249Z,3.79
2023-02-26T01:25:03.502Z,3.58
2023-02-26T01:27:29.777Z,3.72
2023-02-26T01:29:56.045Z,3.91
2023-02-26T01:32:22.406Z,4.40
2023-02-26T01:34:48.737Z,4.63
2023-02-26T01:37:15.014Z,4.83
2023-02-26T01:39:41.281Z,5.07
2023-02-26T01:42:07.536Z,5.27
2023-02-26T01:44:33.856Z,5.50
2023-02-26T01:47:00.122Z,5.59
2023-02-26T01:49:26.406Z,5.93
2023-02-26T01:51:52.672Z,5.94
2023-02-26T01:54:20.675Z,6.19
2023-02-26T01:56:47.114Z,6.45
2023-02-26T01:59:13.376Z,6.59
2023-02-26T02:01:39.625Z,6.27
2023-02-26T02:04:05.910Z,6.66
2023-02-26T02:06:32.237Z,6.54
2023-02-26T02:08:58.497Z,7.16
2023-02-26T02:11:24.792Z,6.86
2023-02-26T02:13:51.154Z,6.86
2023-02-26T02:16:17.461Z,6.48
2023-02-26T02:18:43.731Z,6.59
2023-02-26T02:21:09.998Z,6.69
2023-02-26T02:23:36.250Z,7.09
2023-02-26T02:26:02.505Z,6.77
2023-02-26T02:28:28.777Z,6.79
2023-02-26T02:30:55.085Z,7.24
2023-02-26T02:33:21.394Z,7.24
2023-02-26T02:35:47.658Z,7.00
2023-02-26T02:38:13.928Z,6.82
2023-02-26T02:40:40.195Z,6.91
2023-02-26T02:43:06.490Z,7.18
2023-02-26T02:45:32.876Z,7.23
2023-02-26T02:47:59.179Z,7.38
2023-02-26T02:50:25.466Z,7.50
2023-02-26T02:52:51.735Z,7.86
2023-02-26T02:55:17.987Z,8.19
2023-02-26T02:57:44.240Z,8.09
2023-02-26T03:00:10.497Z,8.99
2023-02-26T03:02:36.812Z,9.70
2023-02-26T03:05:03.105Z,7.17
2023-02-26T03:07:29.375Z,7.14
2023-02-26T03:09:55.649Z,7.26
2023-02-26T03:12:21.924Z,6.52
2023-02-26T03:14:48.246Z,6.77
2023-02-26T03:17:14.505Z,5.98
2023-02-26T03:19:40.757Z,5.85
2023-02-26T03:22:07.027Z,5.69
2023-02-26T03:24:33.305Z,5.22
2023-02-26T03:26:59.600Z,4.96
2023-02-26T03:29:25.883Z,4.49
2023-02-26T03:31:52.199Z,4.25
2023-02-26T03:34:18.506Z,4.28
2023-02-26T03:36:44.830Z,4.17
2023-02-26T03:39:11.121Z,3.95
2023-02-26T03:41:37.409Z,4.02
2023-02-26T03:44:03.689Z,3.95
2023-02-26T03:46:29.964Z,3.89
2023-02-26T03:48:56.270Z,4.11
2023-02-26T03:51:22.546Z,4.14
2023-02-26T03:53:48.805Z,4.34
2023-02-26T03:56:15.087Z,4.12
2023-02-26T03:58:41.344Z,3.96
2023-02-26T04:01:07.587Z,4.21
2023-02-26T04:03:33.839Z,4.19
2023-02-26T04:06:00.132Z,4.04
2023-02-26T04:08:26.410Z,3.95
2023-02-26T04:10:52.657Z,4.68
2023-02-26T04:13:18.900Z,4.18
2023-02-26T04:15:45.205Z,4.38
2023-02-26T04:18:11.489Z,3.83
2023-02-26T04:20:37.749Z,4.10
2023-02-26T04:23:04.032Z,4.20
2023-02-26T04:25:30.298Z,4.25
2023-02-26T04:27:56.575Z,4.26
2023-02-26T04:30:22.899Z,4.02
2023-02-26T04:32:49.204Z,4.30
2023-02-26T04:35:15.478Z,3.96
2023-02-26T04:37:41.955Z,4.03
2023-02-26T04:40:08.263Z,4.17
2023-02-26T04:42:34.528Z,4.26
2023-02-26T04:45:00.782Z,4.27
2023-02-26T04:47:27.037Z,4.10
2023-02-26T04:49:53.295Z,4.20
2023-02-26T04:52:19.600Z,4.04
2023-02-26T04:54:45.878Z,4.47
2023-02-26T04:57:12.154Z,4.47
2023-02-26T04:59:38.475Z,4.40
2023-02-26T05:02:04.742Z,4.59
2023-02-26T05:04:31.186Z,4.43
2023-02-26T05:06:57.485Z,7.19
2023-02-26T05:09:23.735Z,5.01
2023-02-26T05:11:50.004Z,4.22
2023-02-26T05:14:16.280Z,4.34
2023-02-26T05:16:42.517Z,4.19
2023-02-26T05:19:08.778Z,4.68
2023-02-26T05:21:35.044Z,4.51
2023-02-26T05:24:01.331Z,4.48
2023-02-26T05:26:27.795Z,4.43
2023-02-26T05:28:54.199Z,4.33
2023-02-26T05:31:20.587Z,4.31
2023-02-26T05:33:46.846Z,4.08
2023-02-26T05:36:13.127Z,4.15
2023-02-26T05:38:39.419Z,4.01
2023-02-26T05:41:05.679Z,4.11
2023-02-26T05:43:31.967Z,4.09
2023-02-26T05:45:58.239Z,4.19
2023-02-26T05:48:24.538Z,4.28
2023-02-26T05:50:50.850Z,4.30
2023-02-26T05:53:17.110Z,4.19
2023-02-26T05:55:43.404Z,4.10
2023-02-26T05:58:09.667Z,4.35
2023-02-26T06:00:35.916Z,4.32
2023-02-26T06:03:02.172Z,4.50
2023-02-26T06:05:28.428Z,4.26
2023-02-26T06:07:54.684Z,4.35
2023-02-26T06:10:20.948Z,4.41
2023-02-26T06:12:47.226Z,4.32
2023-02-26T06:15:13.529Z,4.38
2023-02-26T06:17:40.914Z,4.31
2023-02-26T06:20:07.281Z,4.43
2023-02-26T06:22:33.545Z,4.89
2023-02-26T06:24:59.820Z,4.27
2023-02-26T06:27:26.090Z,4.34
2023-02-26T06:29:52.372Z,4.47
2023-02-26T06:32:18.732Z,4.09
2023-02-26T06:34:45.052Z,3.97
2023-02-26T06:37:11.312Z,4.26
2023-02-26T06:39:37.569Z,4.33
2023-02-26T06:42:03.849Z,4.14
2023-02-26T06:44:30.132Z,4.14
2023-02-26T06:46:56.411Z,4.15
2023-02-26T06:49:22.683Z,4.07
2023-02-26T06:51:48.963Z,3.89
2023-02-26T06:54:15.208Z,3.92
2023-02-26T06:56:41.469Z,4.18
2023-02-26T06:59:07.717Z,3.71
2023-02-26T07:01:33.999Z,3.62
2023-02-26T07:04:00.253Z,3.84
2023-02-26T07:06:28.081Z,3.70
2023-02-26T07:08:54.625Z,3.89
2023-02-26T07:11:20.937Z,3.89
2023-02-26T07:13:47.235Z,4.09
2023-02-26T07:16:13.512Z,5.32
2023-02-26T07:18:39.763Z,3.55
2023-02-26T07:21:06.041Z,3.28
2023-02-26T07:23:32.293Z,3.06
2023-02-26T07:25:58.549Z,3.07
2023-02-26T07:28:24.877Z,2.93
2023-02-26T07:30:51.279Z,2.99
2023-02-26T07:33:17.599Z,2.96
2023-02-26T07:35:43.879Z,3.15
2023-02-26T07:38:10.178Z,2.91
2023-02-26T07:40:36.473Z,3.08
2023-02-26T07:43:02.741Z,3.31
2023-02-26T07:45:29.081Z,3.11
2023-02-26T07:47:55.356Z,3.10
2023-02-26T07:50:21.625Z,2.81
2023-02-26T07:52:47.932Z,3.08
2023-02-26T07:55:14.208Z,3.21
2023-02-26T07:57:40.522Z,3.19
2023-02-26T08:00:09.480Z,3.22
2023-02-26T08:02:36.121Z,3.25
2023-02-26T08:05:02.405Z,3.22
2023-02-26T08:07:28.680Z,3.26
2023-02-26T08:09:54.964Z,3.55
2023-02-26T08:12:21.288Z,3.27
2023-02-26T08:14:47.588Z,3.60
2023-02-26T08:17:13.927Z,3.17
2023-02-26T08:19:40.191Z,3.16
2023-02-26T08:22:06.472Z,3.50
2023-02-26T08:24:32.827Z,3.35
2023-02-26T08:26:59.097Z,3.27
2023-02-26T08:29:25.379Z,3.06
2023-02-26T08:31:51.728Z,3.39
2023-02-26T08:34:18.057Z,3.41
2023-02-26T08:36:44.342Z,3.39
2023-02-26T08:39:10.594Z,3.65
2023-02-26T08:41:36.864Z,3.27
2023-02-26T08:44:03.122Z,3.45
2023-02-26T08:46:29.830Z,3.49
2023-02-26T08:48:56.281Z,3.64
2023-02-26T08:51:22.576Z,3.33
2023-02-26T08:53:48.959Z,3.63
2023-02-26T08:56:15.226Z,3.36
2023-02-26T08:58:41.577Z,3.36
2023-02-26T09:01:07.865Z,3.24
2023-02-26T09:03:34.214Z,3.44
2023-02-26T09:06:00.544Z,3.31
2023-02-26T09:08:26.914Z,3.40
2023-02-26T09:10:53.190Z,3.12
2023-02-26T09:13:19.471Z,3.20
2023-02-26T09:15:45.753Z,3.28
2023-02-26T09:18:12.023Z,3.24
2023-02-26T09:20:38.311Z,3.25
2023-02-26T09:23:04.566Z,3.21
2023-02-26T09:25:30.905Z,3.30
2023-02-26T09:27:58.486Z,3.21
2023-02-26T09:30:25.123Z,3.05
2023-02-26T09:32:51.483Z,3.49
2023-02-26T09:35:17.811Z,3.53
2023-02-26T09:37:44.082Z,3.39
2023-02-26T09:40:10.380Z,4.13
2023-02-26T09:42:36.661Z,4.75
2023-02-26T09:45:02.946Z,3.59
2023-02-26T09:47:29.236Z,3.54
2023-02-26T09:49:55.502Z,3.23
2023-02-26T09:52:21.792Z,3.53
2023-02-26T09:54:48.065Z,3.29
2023-02-26T09:57:14.361Z,3.28
2023-02-26T09:59:40.614Z,3.42
2023-02-26T10:02:06.938Z,3.35
2023-02-26T10:04:33.286Z,3.39
2023-02-26T10:06:59.584Z,3.28
2023-02-26T10:09:25.867Z,2.96
2023-02-26T10:11:52.166Z,3.24
2023-02-26T10:14:18.466Z,3.18
2023-02-26T10:16:44.765Z,3.04
2023-02-26T10:19:11.110Z,2.84
2023-02-26T10:21:37.393Z,3.08
2023-02-26T10:24:03.709Z,2.90
2023-02-26T10:26:29.970Z,2.98
2023-02-26T10:28:56.269Z,2.91
2023-02-26T10:31:22.595Z,2.95
2023-02-26T10:33:48.894Z,2.99
2023-02-26T10:36:15.178Z,2.92
2023-02-26T10:38:41.445Z,2.83
2023-02-26T10:41:07.726Z,2.91
2023-02-26T10:43:34.009Z,2.65
2023-02-26T10:46:00.282Z,2.77
2023-02-26T10:48:26.676Z,2.80
2023-02-26T10:50:52.951Z,2.68
2023-02-26T10:53:19.221Z,2.55
2023-02-26T10:55:45.478Z,2.72
2023-02-26T10:58:11.756Z,2.64
2023-02-26T11:00:38.018Z,2.33
2023-02-26T11:03:04.294Z,2.43
2023-02-26T11:05:30.580Z,2.56
2023-02-26T11:07:56.861Z,2.43
2023-02-26T11:10:23.126Z,2.53
2023-02-26T11:12:49.430Z,2.55
2023-02-26T11:15:15.715Z,2.41
2023-02-26T11:17:42.006Z,2.59
2023-02-26T11:20:08.354Z,2.35
2023-02-26T11:22:34.646Z,2.99
2023-02-26T11:25:00.916Z,2.49
2023-02-26T11:27:27.257Z,2.37
2023-02-26T11:29:53.561Z,2.31
2023-02-26T11:32:19.945Z,2.13
2023-02-26T11:34:46.282Z,2.21
2023-02-26T11:37:12.557Z,2.31
2023-02-26T11:39:38.817Z,2.23
2023-02-26T11:42:05.169Z,2.45
2023-02-26T11:44:31.479Z,2.34
2023-02-26T11:46:57.738Z,2.21
2023-02-26T11:49:24.055Z,2.09
2023-02-26T11:51:50.631Z,2.05
2023-02-26T11:54:16.942Z,2.26
2023-02-26T11:56:43.213Z,2.13
2023-02-26T11:59:09.496Z,2.14
2023-02-26T12:01:35.875Z,2.02
2023-02-26T12:04:02.243Z,1.95
2023-02-26T12:06:28.539Z,2.68
2023-02-26T12:08:54.937Z,2.47
2023-02-26T12:11:21.223Z,1.98
2023-02-26T12:13:47.481Z,2.02
2023-02-26T12:16:13.796Z,2.16
2023-02-26T12:18:40.093Z,2.16
2023-02-26T12:21:06.367Z,2.02
2023-02-26T12:23:32.729Z,2.01
2023-02-26T12:25:59.033Z,2.01
2023-02-26T12:28:25.317Z,1.89
2023-02-26T12:30:51.600Z,1.96
2023-02-26T12:33:17.901Z,1.85
2023-02-26T12:35:44.205Z,1.74
2023-02-26T12:38:10.517Z,1.88
2023-02-26T12:40:36.766Z,1.76
2023-02-26T12:43:03.019Z,1.94
2023-02-26T12:45:29.291Z,1.97
2023-02-26T12:47:55.590Z,2.03
2023-02-26T12:50:21.877Z,1.81
2023-02-26T12:52:48.148Z,5.36
2023-02-26T12:55:14.411Z,2.39
2023-02-26T12:57:40.696Z,2.29
2023-02-26T13:00:06.996Z,2.11
2023-02-26T13:02:33.271Z,1.90
2023-02-26T13:04:59.533Z,1.89
2023-02-26T13:07:25.801Z,1.90
2023-02-26T13:09:52.043Z,2.20
2023-02-26T13:12:18.330Z,2.04
2023-02-26T13:14:44.578Z,2.02
2023-02-26T13:17:10.849Z,1.94
2023-02-26T13:19:37.129Z,2.02
2023-02-26T13:22:03.416Z,2.05
2023-02-26T13:24:29.694Z,2.34
2023-02-26T13:26:55.961Z,2.27
2023-02-26T13:29:22.211Z,2.14
2023-02-26T13:31:48.570Z,2.09
2023-02-26T13:34:14.901Z,2.17
2023-02-26T13:36:41.233Z,2.14
2023-02-26T13:39:07.502Z,2.15
2023-02-26T13:41:33.755Z,2.28
2023-02-26T13:44:00.042Z,2.30
2023-02-26T13:46:26.339Z,2.06
2023-02-26T13:48:52.685Z,2.08
2023-02-26T13:51:19.026Z,2.34
2023-02-26T13:53:45.266Z,2.32
2023-02-26T13:56:11.535Z,2.26
2023-02-26T13:58:37.849Z,2.28
2023-02-26T14:01:04.133Z,2.23
2023-02-26T14:03:30.421Z,2.53
2023-02-26T14:05:56.713Z,2.59
2023-02-26T14:08:23.037Z,2.39
2023-02-26T14:10:49.423Z,2.56
2023-02-26T14:13:15.714Z,2.63
2023-02-26T14:15:42.002Z,2.87
2023-02-26T14:18:08.334Z,2.60
2023-02-26T14:20:34.575Z,2.47
2023-02-26T14:23:00.828Z,2.45
2023-02-26T14:25:27.081Z,2.60
2023-02-26T14:27:53.349Z,2.34
2023-02-26T14:30:19.631Z,2.36
2023-02-26T14:32:45.939Z,2.56
2023-02-26T14:35:12.226Z,2.51
2023-02-26T14:37:38.499Z,2.56
2023-02-26T14:40:04.757Z,2.37
2023-02-26T14:42:31.056Z,2.94
2023-02-26T14:44:57.382Z,3.56
2023-02-26T14:47:23.886Z,2.63
2023-02-26T14:49:50.724Z,2.58
2023-02-26T14:52:16.984Z,2.41
2023-02-26T14:54:43.286Z,2.54
2023-02-26T14:57:09.540Z,2.30
2023-02-26T14:59:35.783Z,2.60
2023-02-26T15:02:02.186Z,2.66
2023-02-26T15:04:28.467Z,2.51
2023-02-26T15:06:54.731Z,2.45
2023-02-26T15:09:20.982Z,2.91
2023-02-26T15:11:47.234Z,2.44
2023-02-26T15:14:13.497Z,2.59
2023-02-26T15:16:39.805Z,2.64
2023-02-26T15:19:06.106Z,2.72
2023-02-26T15:21:32.409Z,2.72
2023-02-26T15:23:58.676Z,2.73
2023-02-26T15:26:25.275Z,2.65
2023-02-26T15:28:51.739Z,2.74
2023-02-26T15:31:18.173Z,2.37
2023-02-26T15:33:44.505Z,2.54
2023-02-26T15:36:10.758Z,2.74
2023-02-26T15:38:37.014Z,2.70
2023-02-26T15:41:03.287Z,2.77
2023-02-26T15:43:29.549Z,2.85
2023-02-26T15:45:55.821Z,2.77
2023-02-26T15:48:22.115Z,2.57
2023-02-26T15:50:48.383Z,2.85
2023-02-26T15:53:14.685Z,2.61
2023-02-26T15:55:40.945Z,2.74
2023-02-26T15:58:07.246Z,2.64
2023-02-26T16:00:33.595Z,2.62
2023-02-26T16:02:59.938Z,2.54
2023-02-26T16:05:26.260Z,2.56
2023-02-26T16:07:52.545Z,2.71
2023-02-26T16:10:18.834Z,2.45
2023-02-26T16:12:45.192Z,2.90
2023-02-26T16:15:11.464Z,2.79
2023-02-26T16:17:37.717Z,2.67
2023-02-26T16:20:04.000Z,3.57
2023-02-26T16:22:30.294Z,2.93
2023-02-26T16:24:56.566Z,2.84
2023-02-26T16:27:22.826Z,2.65
2023-02-26T16:29:49.101Z,3.11
2023-02-26T16:32:15.452Z,2.76
2023-02-26T16:34:41.770Z,2.75
2023-02-26T16:37:08.060Z,2.75
2023-02-26T16:39:34.341Z,2.68
2023-02-26T16:42:00.635Z,2.66
2023-02-26T16:44:27.009Z,2.90
2023-02-26T16:46:53.569Z,2.69
2023-02-26T16:49:19.879Z,3.03
2023-02-26T16:51:46.123Z,3.02
2023-02-26T16:54:12.423Z,3.25
2023-02-26T16:56:38.677Z,2.71
2023-02-26T16:59:04.926Z,2.81
2023-02-26T17:01:31.239Z,2.81
2023-02-26T17:03:57.545Z,2.77
2023-02-26T17:06:23.820Z,2.98
2023-02-26T17:08:50.097Z,3.35
2023-02-26T17:11:16.368Z,3.45
2023-02-26T17:13:42.643Z,3.41
2023-02-26T17:16:08.980Z,3.14
2023-02-26T17:18:35.518Z,4.41
2023-02-26T17:21:01.775Z,3.61
2023-02-26T17:23:28.076Z,2.91
2023-02-26T17:25:54.972Z,3.15
2023-02-26T17:28:21.324Z,3.45
2023-02-26T17:30:47.615Z,3.37
2023-02-26T17:33:14.006Z,3.36
2023-02-26T17:35:40.319Z,3.35
2023-02-26T17:38:06.574Z,3.17
2023-02-26T17:40:32.839Z,3.15
2023-02-26T17:42:59.162Z,3.03
2023-02-26T17:45:25.415Z,3.05
2023-02-26T17:47:51.669Z,3.20
2023-02-26T17:50:18.037Z,3.11
2023-02-26T17:52:44.357Z,3.34
2023-02-26T17:55:10.659Z,2.93
2023-02-26T17:57:36.943Z,3.14
2023-02-26T18:00:03.214Z,3.03
2023-02-26T18:02:29.525Z,3.07
2023-02-26T18:04:55.817Z,2.93
2023-02-26T18:07:22.115Z,3.11
2023-02-26T18:09:48.408Z,3.40
2023-02-26T18:12:14.673Z,3.40
2023-02-26T18:14:40.993Z,3.92
2023-02-26T18:17:07.385Z,3.62
2023-02-26T18:19:33.680Z,3.58
2023-02-26T18:21:59.941Z,3.66
2023-02-26T18:24:26.266Z,3.61
2023-02-26T18:26:52.646Z,3.48
2023-02-26T18:29:18.929Z,3.78
2023-02-26T18:31:45.366Z,3.63
2023-02-26T18:34:11.702Z,3.62
2023-02-26T18:36:38.179Z,3.59
2023-02-26T18:39:04.447Z,3.89
2023-02-26T18:41:30.734Z,3.78
2023-02-26T18:43:57.031Z,3.61
2023-02-26T18:46:23.425Z,3.63
2023-02-26T18:48:49.806Z,3.60
2023-02-26T18:51:16.079Z,3.66
2023-02-26T18:53:42.357Z,3.94
2023-02-26T18:56:08.896Z,3.56
2023-02-26T18:58:35.338Z,3.89
2023-02-26T19:01:01.750Z,4.45
2023-02-26T19:03:28.106Z,5.39
2023-02-26T19:05:54.434Z,3.72
2023-02-26T19:08:20.755Z,3.91
2023-02-26T19:10:47.072Z,3.61
2023-02-26T19:13:13.346Z,4.06
2023-02-26T19:15:39.621Z,3.91
2023-02-26T19:18:05.913Z,3.67
2023-02-26T19:20:32.207Z,3.91
2023-02-26T19:22:58.556Z,3.71
2023-02-26T19:25:24.835Z,3.69
2023-02-26T19:27:51.192Z,3.51
2023-02-26T19:30:17.536Z,3.41
2023-02-26T19:32:44.678Z,3.25
2023-02-26T19:35:11.006Z,3.60
2023-02-26T19:37:37.486Z,3.34
2023-02-26T19:40:03.750Z,3.74
2023-02-26T19:42:30.005Z,3.37
2023-02-26T19:44:56.370Z,3.40
2023-02-26T19:47:22.651Z,3.31
2023-02-26T19:49:48.930Z,3.29
2023-02-26T19:52:15.240Z,3.48
2023-02-26T19:54:41.540Z,3.26
2023-02-26T19:57:07.869Z,3.43
2023-02-26T19:59:34.158Z,3.40
2023-02-26T20:02:00.428Z,3.17
2023-02-26T20:04:26.745Z,3.00
2023-02-26T20:06:53.013Z,3.27
2023-02-26T20:09:19.287Z,3.25
2023-02-26T20:11:45.530Z,3.26
2023-02-26T20:14:11.821Z,3.45
2023-02-26T20:16:38.071Z,3.26
2023-02-26T20:19:06.783Z,3.41
2023-02-26T20:21:33.115Z,3.42
2023-02-26T20:23:59.412Z,3.49
2023-02-26T20:26:25.680Z,3.38
2023-02-26T20:28:51.923Z,3.37
2023-02-26T20:31:18.368Z,3.56
2023-02-26T20:33:44.757Z,3.54
2023-02-26T20:36:11.105Z,3.37
2023-02-26T20:38:37.468Z,3.37
2023-02-26T20:41:03.712Z,3.53
2023-02-26T20:43:30.055Z,3.49
2023-02-26T20:45:56.343Z,3.52
2023-02-26T20:48:22.647Z,3.56
2023-02-26T20:50:49.118Z,3.82
2023-02-26T20:53:15.386Z,3.93
2023-02-26T20:55:41.660Z,3.87
2023-02-26T20:58:07.952Z,3.84
2023-02-26T21:00:35.366Z,4.07
2023-02-26T21:03:01.633Z,3.95
2023-02-26T21:05:27.926Z,4.29
2023-02-26T21:07:54.232Z,4.45
2023-02-26T21:10:20.625Z,4.55
2023-02-26T21:12:46.894Z,4.21
2023-02-26T21:15:13.297Z,4.04
2023-02-26T21:17:39.568Z,4.10
2023-02-26T21:20:05.836Z,4.05
2023-02-26T21:22:32.151Z,4.05
2023-02-26T21:24:58.452Z,4.16
2023-02-26T21:27:24.784Z,3.89
2023-02-26T21:29:51.097Z,3.88
2023-02-26T21:32:17.420Z,3.94
2023-02-26T21:34:43.775Z,3.87
2023-02-26T21:37:10.068Z,3.61
2023-02-26T21:39:36.342Z,3.66
2023-02-26T21:42:02.620Z,3.81
2023-02-26T21:44:28.877Z,3.55
2023-02-26T21:46:55.133Z,3.67
2023-02-26T21:49:21.397Z,3.86
2023-02-26T21:51:47.738Z,3.84
2023-02-26T21:54:13.989Z,3.80
2023-02-26T21:56:40.253Z,3.76
2023-02-26T21:59:06.594Z,3.66
2023-02-26T22:01:32.937Z,3.95
2023-02-26T22:03:59.214Z,4.20
2023-02-26T22:06:25.483Z,4.34
2023-02-26T22:08:51.828Z,4.62
2023-02-26T22:11:18.100Z,4.71
2023-02-26T22:13:44.427Z,4.96
2023-02-26T22:16:10.702Z,5.16
2023-02-26T22:18:37.059Z,4.92
2023-02-26T22:21:03.352Z,5.43
2023-02-26T22:23:29.594Z,5.31
2023-02-26T22:25:55.857Z,5.10
2023-02-26T22:28:22.143Z,5.40
2023-02-26T22:30:48.470Z,5.53
2023-02-26T22:33:14.796Z,5.44
2023-02-26T22:35:41.069Z,5.27
2023-02-26T22:38:07.373Z,5.54
2023-02-26T22:40:33.633Z,5.68
2023-02-26T22:42:59.962Z,5.46
2023-02-26T22:45:26.390Z,5.91
2023-02-26T22:47:52.627Z,5.97
2023-02-26T22:50:18.925Z,5.96
2023-02-26T22:52:45.227Z,5.68
2023-02-26T22:55:11.504Z,6.00
2023-02-26T22:57:37.748Z,6.00
2023-02-26T23:00:04.037Z,6.02
2023-02-26T23:02:30.386Z,6.07
2023-02-26T23:04:56.655Z,6.88
2023-02-26T23:07:23.007Z,7.33
2023-02-26T23:09:49.273Z,5.97
2023-02-26T23:12:15.568Z,5.98
2023-02-26T23:14:41.829Z,6.20
2023-02-26T23:17:10.292Z,6.49
2023-02-26T23:19:37.465Z,6.25
2023-02-26T23:22:03.914Z,6.36
2023-02-26T23:24:30.197Z,6.51
2023-02-26T23:26:56.474Z,6.39
2023-02-26T23:29:22.794Z,6.20
2023-02-26T23:31:49.183Z,6.09
2023-02-26T23:34:15.611Z,5.98
2023-02-26T23:36:41.982Z,6.38
2023-02-26T23:39:08.330Z,5.96
2023-02-26T23:41:34.638Z,5.60
2023-02-26T23:44:00.906Z,5.94
2023-02-26T23:46:27.307Z,6.14
2023-02-26T23:48:53.601Z,5.87
2023-02-26T23:51:19.870Z,5.84
2023-02-26T23:53:46.160Z,5.70
2023-02-26T23:56:12.411Z,6.01
2023-02-26T23:58:38.667Z,6.04
